createdAt,value
2022-10-10T00:05:17.232Z,12.67
2022-10-10T00:10:39.000Z,12.59
2022-10-10T00:16:01.165Z,12.66
2022-10-10T00:21:22.957Z,12.69
2022-10-10T00:26:44.657Z,12.70
2022-10-10T00:32:06.348Z,12.74
2022-10-10T00:37:28.046Z,12.74
2022-10-10T00:42:49.944Z,12.68
2022-10-10T00:48:23.008Z,12.77
2022-10-10T00:53:47.862Z,12.95
2022-10-10T00:59:12.405Z,12.89
2022-10-10T01:04:45.185Z,12.85
2022-10-10T01:10:14.105Z,12.81
2022-10-10T01:15:56.979Z,12.90
2022-10-10T01:22:04.149Z,12.84
2022-10-10T01:27:47.636Z,12.86
2022-10-10T01:33:16.049Z,12.84
2022-10-10T01:38:57.765Z,12.78
2022-10-10T01:44:21.772Z,12.79
2022-10-10T01:49:45.099Z,12.75
2022-10-10T01:55:36.803Z,12.77
2022-10-10T02:01:19.626Z,12.79
2022-10-10T02:06:47.265Z,12.88
2022-10-10T02:12:12.547Z,12.75
2022-10-10T02:17:37.699Z,12.73
2022-10-10T02:22:59.586Z,12.66
2022-10-10T02:28:40.223Z,12.63
2022-10-10T02:34:17.738Z,12.61
2022-10-10T02:39:44.790Z,12.63
2022-10-10T02:45:07.158Z,12.62
2022-10-10T02:50:30.191Z,12.61
2022-10-10T02:55:51.918Z,12.57
2022-10-10T03:01:13.658Z,12.50
2022-10-10T03:06:35.863Z,12.47
2022-10-10T03:11:57.632Z,12.41
2022-10-10T03:17:19.331Z,12.40
2022-10-10T03:22:41.022Z,12.37
2022-10-10T03:28:02.787Z,12.43
2022-10-10T03:33:24.570Z,12.36
2022-10-10T03:38:46.250Z,12.36
2022-10-10T03:44:07.935Z,12.42
2022-10-10T03:49:29.647Z,12.46
2022-10-10T03:54:51.339Z,12.44
2022-10-10T04:00:13.910Z,12.38
2022-10-10T04:05:37.650Z,12.38
2022-10-10T04:10:59.353Z,12.37
2022-10-10T04:16:21.089Z,12.28
2022-10-10T04:21:42.791Z,12.16
2022-10-10T04:27:04.614Z,12.11
2022-10-10T04:32:26.388Z,12.13
2022-10-10T04:37:48.104Z,12.26
2022-10-10T04:43:09.885Z,12.27
2022-10-10T04:48:31.578Z,12.17
2022-10-10T04:53:53.255Z,12.14
2022-10-10T04:59:14.941Z,12.11
2022-10-10T05:04:36.739Z,12.12
2022-10-10T05:09:58.445Z,12.06
2022-10-10T05:15:21.421Z,12.15
2022-10-10T05:20:43.979Z,12.14
2022-10-10T05:26:05.731Z,12.02
2022-10-10T05:31:28.792Z,12.08
2022-10-10T05:36:50.659Z,12.18
2022-10-10T05:42:13.975Z,12.22
2022-10-10T05:47:35.765Z,12.19
2022-10-10T05:52:57.513Z,11.91
2022-10-10T05:58:19.697Z,11.88
2022-10-10T06:03:41.480Z,12.04
2022-10-10T06:09:03.646Z,12.22
2022-10-10T06:14:25.497Z,12.36
2022-10-10T06:19:47.238Z,12.32
2022-10-10T06:25:23.891Z,12.21
2022-10-10T06:30:51.481Z,12.39
2022-10-10T06:36:14.210Z,12.49
2022-10-10T06:41:36.073Z,12.51
2022-10-10T06:46:58.080Z,12.56
2022-10-10T06:52:19.907Z,12.55
2022-10-10T06:57:42.726Z,12.58
2022-10-10T07:03:04.445Z,12.62
2022-10-10T07:08:26.805Z,12.67
2022-10-10T07:13:50.960Z,12.76
2022-10-10T07:19:12.756Z,12.80
2022-10-10T07:24:34.506Z,12.77
2022-10-10T07:29:56.280Z,12.79
2022-10-10T07:35:18.134Z,12.89
2022-10-10T07:40:41.275Z,13.04
2022-10-10T07:46:05.869Z,13.14
2022-10-10T07:51:30.215Z,13.18
2022-10-10T07:56:52.047Z,13.23
2022-10-10T08:02:13.944Z,13.32
2022-10-10T08:07:35.843Z,13.39
2022-10-10T08:12:57.564Z,13.42
2022-10-10T08:18:19.692Z,13.52
2022-10-10T08:23:41.965Z,13.61
2022-10-10T08:29:03.829Z,13.72
2022-10-10T08:34:25.629Z,13.86
2022-10-10T08:39:47.451Z,13.97
2022-10-10T08:45:15.053Z,14.06
2022-10-10T08:50:46.445Z,14.18
2022-10-10T08:56:16.410Z,14.27
2022-10-10T09:02:17.843Z,14.33
2022-10-10T09:07:34.703Z,14.39
2022-10-10T09:13:12.789Z,14.52
2022-10-10T09:18:53.699Z,14.61
2022-10-10T09:24:32.287Z,14.69
2022-10-10T09:30:05.886Z,14.83
2022-10-10T09:35:47.659Z,14.93
2022-10-10T09:41:16.049Z,15.01
2022-10-10T09:46:38.442Z,15.11
2022-10-10T09:52:12.091Z,15.22
2022-10-10T09:57:40.815Z,15.41
2022-10-10T10:03:08.509Z,15.49
2022-10-10T10:08:35.669Z,15.60
2022-10-10T10:13:57.884Z,15.70
2022-10-10T10:19:37.353Z,15.83
2022-10-10T10:25:19.968Z,15.95
2022-10-10T10:30:43.459Z,16.05
2022-10-10T10:36:29.827Z,16.13
2022-10-10T10:42:06.182Z,16.27
2022-10-10T10:47:51.087Z,16.32
2022-10-10T10:53:22.180Z,16.39
2022-10-10T10:59:30.367Z,16.46
2022-10-10T11:05:25.052Z,16.69
2022-10-10T11:11:01.805Z,16.60
2022-10-10T11:16:47.557Z,16.97
2022-10-10T11:22:18.512Z,16.90
2022-10-10T11:27:48.522Z,16.83
2022-10-10T11:33:10.157Z,16.87
2022-10-10T11:38:38.541Z,16.93
2022-10-10T11:44:15.267Z,17.26
2022-10-10T11:49:53.301Z,17.53
2022-10-10T11:55:36.391Z,17.36
2022-10-10T12:01:06.026Z,17.49
2022-10-10T12:06:38.658Z,17.70
2022-10-10T12:12:12.698Z,17.79
2022-10-10T12:17:39.811Z,17.92
2022-10-10T12:23:24.660Z,18.05
2022-10-10T12:29:05.663Z,18.04
2022-10-10T12:34:54.765Z,18.18
2022-10-10T12:40:21.519Z,18.24
2022-10-10T12:46:18.721Z,18.14
2022-10-10T12:51:42.138Z,18.11
2022-10-10T12:57:18.771Z,18.07
2022-10-10T13:02:44.111Z,18.13
2022-10-10T13:08:11.959Z,18.10
2022-10-10T13:13:34.258Z,18.06
2022-10-10T13:18:58.251Z,17.97
2022-10-10T13:24:31.571Z,17.97
2022-10-10T13:29:55.064Z,17.98
2022-10-10T13:35:21.265Z,17.94
2022-10-10T13:40:44.379Z,17.97
2022-10-10T13:46:06.579Z,17.97
2022-10-10T13:51:43.635Z,18.10
2022-10-10T13:57:10.857Z,18.09
2022-10-10T14:02:36.193Z,18.16
2022-10-10T14:07:59.056Z,18.23
2022-10-10T14:13:20.891Z,18.31
2022-10-10T14:18:42.615Z,18.27
2022-10-10T14:24:04.607Z,18.23
2022-10-10T14:29:26.317Z,18.31
2022-10-10T14:34:48.210Z,18.36
2022-10-10T14:40:22.940Z,18.40
2022-10-10T14:45:45.094Z,18.46
2022-10-10T14:51:33.789Z,18.47
2022-10-10T14:57:07.437Z,18.38
2022-10-10T15:02:31.830Z,18.25
2022-10-10T15:07:53.871Z,18.11
2022-10-10T15:13:16.067Z,18.14
2022-10-10T15:18:53.623Z,18.20
2022-10-10T15:24:16.279Z,18.17
2022-10-10T15:29:39.470Z,18.20
2022-10-10T15:35:01.239Z,18.27
2022-10-10T15:40:23.879Z,18.17
2022-10-10T15:45:55.814Z,18.08
2022-10-10T15:51:18.442Z,18.05
2022-10-10T15:56:42.222Z,18.06
2022-10-10T16:02:03.959Z,17.99
2022-10-10T16:07:29.518Z,17.93
2022-10-10T16:12:54.716Z,17.85
2022-10-10T16:18:16.410Z,17.77
2022-10-10T16:23:38.517Z,17.70
2022-10-10T16:29:01.595Z,17.62
2022-10-10T16:34:23.293Z,17.59
2022-10-10T16:39:45.003Z,17.55
2022-10-10T16:45:07.394Z,17.48
2022-10-10T16:50:29.086Z,17.42
2022-10-10T16:55:50.849Z,17.35
2022-10-10T17:01:15.664Z,17.31
2022-10-10T17:06:37.831Z,17.22
2022-10-10T17:11:59.602Z,17.12
2022-10-10T17:17:22.485Z,17.00
2022-10-10T17:22:44.264Z,16.85
2022-10-10T17:28:06.020Z,16.75
2022-10-10T17:33:27.836Z,16.71
2022-10-10T17:38:49.600Z,16.70
2022-10-10T17:44:12.131Z,16.67
2022-10-10T17:49:33.903Z,16.64
2022-10-10T17:54:55.585Z,16.69
2022-10-10T18:00:17.419Z,16.68
2022-10-10T18:05:40.032Z,16.68
2022-10-10T18:11:03.164Z,16.70
2022-10-10T18:16:25.849Z,16.73
2022-10-10T18:21:48.900Z,16.65
2022-10-10T18:27:10.691Z,16.70
2022-10-10T18:32:32.614Z,16.37
2022-10-10T18:37:54.395Z,15.53
2022-10-10T18:43:18.210Z,15.22
2022-10-10T18:48:40.548Z,15.31
2022-10-10T18:54:07.768Z,15.48
2022-10-10T18:59:29.689Z,15.27
2022-10-10T19:04:51.436Z,15.17
2022-10-10T19:10:13.181Z,15.03
2022-10-10T19:15:35.270Z,14.96
2022-10-10T19:21:05.597Z,14.96
2022-10-10T19:26:33.184Z,14.99
2022-10-10T19:31:55.886Z,15.06
2022-10-10T19:37:19.396Z,15.16
2022-10-10T19:42:41.120Z,15.24
2022-10-10T19:48:02.861Z,15.23
2022-10-10T19:53:25.282Z,15.18
2022-10-10T19:58:47.690Z,15.17
2022-10-10T20:04:09.505Z,14.92
2022-10-10T20:09:31.274Z,14.86
2022-10-10T20:14:53.114Z,14.88
2022-10-10T20:20:14.994Z,14.90
2022-10-10T20:25:41.713Z,14.89
2022-10-10T20:31:03.558Z,14.89
2022-10-10T20:36:25.379Z,14.96
2022-10-10T20:41:47.223Z,15.11
2022-10-10T20:47:08.903Z,15.09
2022-10-10T20:52:30.900Z,14.93
2022-10-10T20:57:52.917Z,14.83
2022-10-10T21:03:14.606Z,14.86
2022-10-10T21:08:36.538Z,14.84
2022-10-10T21:13:59.596Z,14.72
2022-10-10T21:19:21.411Z,14.72
2022-10-10T21:24:43.112Z,14.78
2022-10-10T21:30:05.502Z,14.73
2022-10-10T21:35:27.310Z,14.72
2022-10-10T21:40:49.350Z,14.69
2022-10-10T21:46:14.168Z,14.66
2022-10-10T21:51:38.426Z,14.77
2022-10-10T21:57:00.156Z,14.72
2022-10-10T22:02:21.885Z,14.67
2022-10-10T22:07:45.204Z,14.67
2022-10-10T22:13:07.066Z,14.70
2022-10-10T22:18:29.113Z,14.66
2022-10-10T22:23:50.824Z,14.67
2022-10-10T22:29:12.522Z,14.62
2022-10-10T22:34:34.240Z,14.63
2022-10-10T22:39:56.077Z,14.68
2022-10-10T22:45:18.137Z,14.70
2022-10-10T22:50:39.911Z,14.85
2022-10-10T22:56:02.020Z,14.90
2022-10-10T23:01:25.953Z,14.96
2022-10-10T23:06:47.890Z,14.82
2022-10-10T23:12:10.139Z,14.68
2022-10-10T23:17:31.832Z,14.70
2022-10-10T23:22:54.151Z,14.70
2022-10-10T23:28:16.766Z,14.71
2022-10-10T23:33:38.953Z,14.62
2022-10-10T23:39:00.675Z,14.58
2022-10-10T23:44:22.449Z,14.52
2022-10-10T23:49:44.766Z,14.47
2022-10-10T23:55:06.883Z,14.42
